Time;durP1;ratioP1;P1;durP2;ratioP2;P2;SDS_P1;SDS_P2;PMS_P1;PMS_P2;Temp;Humidity;BMP_temperature;BMP_pressure;BME280_temperature;BME280_humidity;BME280_pressure;Samples;Min_cycle;Max_cycle;Signal;HPM_P1;HPM_P2
2021/07/31 00:02:01;;;;;;;2.08;0.40;;;;;;;;;;5051049;28;20543;-70
2021/07/31 00:04:28;;;;;;;0.77;0.30;;;;;;;;;;5045278;28;20029;-69
2021/07/31 00:06:55;;;;;;;2.42;0.70;;;;;;;;;;5051731;28;20029;-69
2021/07/31 00:09:22;;;;;;;0.82;0.30;;;;;;;;;;5049827;28;20040;-70
2021/07/31 00:11:50;;;;;;;4.82;0.52;;;;;;;;;;5043939;28;20025;-70
2021/07/31 00:14:17;;;;;;;1.10;0.32;;;;;;;;;;5045697;28;20389;-69
2021/07/31 00:16:45;;;;;;;4.80;0.43;;;;;;;;;;5048208;28;20492;-69
2021/07/31 00:19:12;;;;;;;1.25;0.32;;;;;;;;;;5046069;28;20039;-69
2021/07/31 00:21:39;;;;;;;2.95;0.38;;;;;;;;;;5038126;28;20029;-68
2021/07/31 00:24:06;;;;;;;1.92;0.50;;;;;;;;;;5049520;28;20123;-70
2021/07/31 00:26:33;;;;;;;0.85;0.30;;;;;;;;;;5041870;28;20074;-70
2021/07/31 00:29:01;;;;;;;5.43;0.80;;;;;;;;;;5050167;28;20025;-73
2021/07/31 00:31:28;;;;;;;2.63;0.45;;;;;;;;;;5054247;28;20079;-73
2021/07/31 00:33:55;;;;;;;2.53;0.90;;;;;;;;;;5048126;28;20035;-73
2021/07/31 00:36:24;;;;;;;1.65;0.30;;;;;;;;;;5049621;28;20128;-74
2021/07/31 00:38:51;;;;;;;1.50;0.43;;;;;;;;;;5049933;28;20043;-73
2021/07/31 00:41:18;;;;;;;4.07;0.60;;;;;;;;;;5048120;28;20017;-74
2021/07/31 00:43:45;;;;;;;3.15;0.65;;;;;;;;;;5041003;28;21810;-73
2021/07/31 00:46:13;;;;;;;2.75;0.77;;;;;;;;;;5049933;28;20044;-73
2021/07/31 00:48:40;;;;;;;1.23;0.45;;;;;;;;;;5046198;28;20501;-73
2021/07/31 00:51:08;;;;;;;1.80;0.47;;;;;;;;;;5051337;28;20020;-72
2021/07/31 00:53:35;;;;;;;2.47;0.47;;;;;;;;;;5045818;28;20386;-74
2021/07/31 00:56:02;;;;;;;1.75;0.30;;;;;;;;;;5037808;28;20025;-73
2021/07/31 00:58:29;;;;;;;3.83;0.95;;;;;;;;;;5046975;28;20048;-71
2021/07/31 01:01:00;;;;;;;4.80;1.83;;;;;;;;;;5048233;28;20112;-73
2021/07/31 01:03:27;;;;;;;2.83;0.43;;;;;;;;;;5049900;28;20033;-73
2021/07/31 01:05:54;;;;;;;2.38;0.35;;;;;;;;;;5041596;28;20034;-73
2021/07/31 01:08:21;;;;;;;3.13;0.68;;;;;;;;;;5046160;28;20079;-72
2021/07/31 01:10:49;;;;;;;3.08;0.38;;;;;;;;;;5036699;28;20025;-72
2021/07/31 01:13:16;;;;;;;1.48;0.40;;;;;;;;;;5034705;28;20386;-72
2021/07/31 01:15:57;;;;;;;1.88;0.30;;;;;;;;;;5048732;28;20390;-71
2021/07/31 01:18:24;;;;;;;2.85;0.40;;;;;;;;;;5046413;28;20474;-73
2021/07/31 01:20:51;;;;;;;2.85;0.40;;;;;;;;;;5049302;28;20067;-73
2021/07/31 01:23:18;;;;;;;2.10;0.55;;;;;;;;;;5049062;28;20017;-73
2021/07/31 01:25:45;;;;;;;1.42;0.40;;;;;;;;;;5049638;28;20405;-71
2021/07/31 01:28:12;;;;;;;1.67;0.47;;;;;;;;;;5043661;28;20029;-72
2021/07/31 01:30:40;;;;;;;3.00;0.65;;;;;;;;;;5049175;28;20025;-73
2021/07/31 01:33:07;;;;;;;6.00;0.60;;;;;;;;;;5045120;28;20036;-73
2021/07/31 01:35:34;;;;;;;1.75;0.32;;;;;;;;;;5051176;28;20102;-73
2021/07/31 01:38:04;;;;;;;3.30;0.80;;;;;;;;;;5048075;28;20053;-71
2021/07/31 01:40:31;;;;;;;2.10;0.80;;;;;;;;;;5049236;28;20029;-72
2021/07/31 01:42:58;;;;;;;2.85;0.65;;;;;;;;;;5047575;28;20035;-70
2021/07/31 01:45:26;;;;;;;2.42;0.40;;;;;;;;;;5030985;28;20469;-69
2021/07/31 01:47:53;;;;;;;3.10;0.57;;;;;;;;;;5048712;28;20025;-68
2021/07/31 01:50:20;;;;;;;1.38;0.60;;;;;;;;;;5053175;28;20040;-71
2021/07/31 01:52:47;;;;;;;2.50;0.60;;;;;;;;;;5050813;28;20029;-70
2021/07/31 01:55:15;;;;;;;2.75;0.82;;;;;;;;;;5049642;28;20150;-69
2021/07/31 01:57:42;;;;;;;4.00;1.13;;;;;;;;;;5051565;28;20441;-70
2021/07/31 02:00:09;;;;;;;4.20;0.68;;;;;;;;;;5048715;28;20083;-70
2021/07/31 02:02:36;;;;;;;1.42;0.40;;;;;;;;;;5054822;28;20025;-70
2021/07/31 02:05:03;;;;;;;2.83;0.50;;;;;;;;;;5048702;28;20029;-70
2021/07/31 02:07:30;;;;;;;2.40;0.40;;;;;;;;;;5052880;28;20021;-71
2021/07/31 02:09:58;;;;;;;3.95;0.60;;;;;;;;;;5051670;28;20030;-70
2021/07/31 02:12:25;;;;;;;2.15;0.55;;;;;;;;;;5054232;28;20104;-69
2021/07/31 02:14:52;;;;;;;2.35;0.60;;;;;;;;;;5051154;28;20358;-69
2021/07/31 02:17:19;;;;;;;3.20;0.40;;;;;;;;;;5053296;28;20052;-70
2021/07/31 02:19:46;;;;;;;2.80;0.60;;;;;;;;;;5052454;28;20108;-70
2021/07/31 02:22:13;;;;;;;2.13;0.30;;;;;;;;;;5053687;28;20112;-70
2021/07/31 02:24:40;;;;;;;3.03;0.60;;;;;;;;;;5051818;28;20071;-68
2021/07/31 02:27:07;;;;;;;1.80;0.40;;;;;;;;;;5053675;28;20025;-70
2021/07/31 02:29:35;;;;;;;2.45;0.70;;;;;;;;;;5047189;28;20094;-72
2021/07/31 02:32:02;;;;;;;2.85;0.50;;;;;;;;;;5047461;28;20025;-69
2021/07/31 02:34:29;;;;;;;2.65;0.50;;;;;;;;;;5051218;28;20509;-72
2021/07/31 02:36:56;;;;;;;4.78;0.50;;;;;;;;;;5049532;28;20049;-70
2021/07/31 02:39:23;;;;;;;1.60;0.63;;;;;;;;;;5048145;28;20698;-72
2021/07/31 02:41:50;;;;;;;2.83;0.60;;;;;;;;;;5046593;28;20029;-71
2021/07/31 02:44:17;;;;;;;1.90;0.60;;;;;;;;;;5049224;28;20017;-71
2021/07/31 02:46:44;;;;;;;4.25;0.35;;;;;;;;;;5046942;28;20021;-71
2021/07/31 02:49:11;;;;;;;1.75;0.80;;;;;;;;;;5048811;28;20044;-72
2021/07/31 02:51:38;;;;;;;2.47;0.60;;;;;;;;;;5048684;28;20033;-72
2021/07/31 02:54:06;;;;;;;3.13;0.45;;;;;;;;;;5059207;28;20025;-71
2021/07/31 02:56:33;;;;;;;1.80;0.60;;;;;;;;;;5048928;28;20029;-71
2021/07/31 02:59:00;;;;;;;3.72;0.85;;;;;;;;;;5047173;28;20030;-70
2021/07/31 03:01:27;;;;;;;1.52;0.40;;;;;;;;;;5049454;28;20048;-71
2021/07/31 03:03:56;;;;;;;2.17;0.60;;;;;;;;;;5046906;28;20025;-70
2021/07/31 03:06:23;;;;;;;3.00;0.57;;;;;;;;;;5047976;28;20404;-70
2021/07/31 03:08:50;;;;;;;6.85;0.65;;;;;;;;;;5044645;28;20033;-69
2021/07/31 03:11:17;;;;;;;5.00;0.43;;;;;;;;;;5047660;28;20158;-70
2021/07/31 03:13:44;;;;;;;2.47;0.50;;;;;;;;;;5044418;28;20457;-69
2021/07/31 03:16:11;;;;;;;1.58;0.40;;;;;;;;;;5045509;28;21045;-70
2021/07/31 03:18:38;;;;;;;2.13;0.60;;;;;;;;;;5043162;28;20082;-69
2021/07/31 03:21:06;;;;;;;3.05;0.50;;;;;;;;;;5058504;28;20102;-70
2021/07/31 03:23:33;;;;;;;3.00;1.02;;;;;;;;;;5047549;28;20029;-70
2021/07/31 03:26:00;;;;;;;1.52;0.50;;;;;;;;;;5048072;28;20033;-70
2021/07/31 03:28:28;;;;;;;4.03;0.85;;;;;;;;;;5048786;28;20421;-70
2021/07/31 03:30:56;;;;;;;3.72;0.30;;;;;;;;;;5050564;28;20501;-71
2021/07/31 03:33:23;;;;;;;1.90;0.50;;;;;;;;;;5047830;28;20040;-69
2021/07/31 03:35:51;;;;;;;1.95;0.40;;;;;;;;;;5050362;28;20451;-70
2021/07/31 03:38:19;;;;;;;2.53;0.60;;;;;;;;;;5049104;28;20025;-69
2021/07/31 03:40:46;;;;;;;2.80;0.65;;;;;;;;;;5045134;28;20060;-69
2021/07/31 03:43:14;;;;;;;3.40;0.40;;;;;;;;;;5048506;28;20568;-69
2021/07/31 03:45:41;;;;;;;4.07;0.60;;;;;;;;;;5048932;28;20378;-69
2021/07/31 03:48:08;;;;;;;4.15;0.52;;;;;;;;;;5047673;28;20088;-69
2021/07/31 03:50:39;;;;;;;4.43;0.47;;;;;;;;;;5049273;28;20013;-70
2021/07/31 03:53:06;;;;;;;2.72;0.50;;;;;;;;;;5047895;28;20032;-69
2021/07/31 03:55:33;;;;;;;3.58;0.88;;;;;;;;;;5052255;28;20022;-68
2021/07/31 03:58:00;;;;;;;2.50;0.63;;;;;;;;;;5046772;28;20022;-68
2021/07/31 04:00:28;;;;;;;2.63;0.60;;;;;;;;;;5045646;28;20030;-69
2021/07/31 04:02:55;;;;;;;2.30;0.30;;;;;;;;;;5048840;28;20048;-69
2021/07/31 04:05:22;;;;;;;2.08;0.40;;;;;;;;;;5047346;28;20040;-70
2021/07/31 04:07:49;;;;;;;2.40;0.35;;;;;;;;;;5048939;28;20366;-70
2021/07/31 04:10:17;;;;;;;3.78;0.60;;;;;;;;;;5042099;28;20025;-71
2021/07/31 04:12:44;;;;;;;1.77;0.30;;;;;;;;;;5039306;28;20104;-69
2021/07/31 04:15:11;;;;;;;1.70;0.40;;;;;;;;;;5046409;28;20047;-69
2021/07/31 04:17:38;;;;;;;3.15;0.47;;;;;;;;;;5065822;28;20028;-70
2021/07/31 04:20:06;;;;;;;2.47;0.70;;;;;;;;;;5062656;28;20041;-70
2021/07/31 04:22:33;;;;;;;2.20;0.47;;;;;;;;;;5050853;28;20028;-70
2021/07/31 04:25:00;;;;;;;3.97;0.60;;;;;;;;;;5047507;28;20024;-69
2021/07/31 04:27:27;;;;;;;2.95;0.60;;;;;;;;;;5051287;28;20021;-70
2021/07/31 04:29:54;;;;;;;3.28;0.60;;;;;;;;;;5048095;28;20033;-71
2021/07/31 04:32:22;;;;;;;4.40;0.50;;;;;;;;;;5050113;28;20091;-68
2021/07/31 04:34:49;;;;;;;2.30;0.40;;;;;;;;;;5052922;28;20033;-69
2021/07/31 04:37:16;;;;;;;4.07;0.50;;;;;;;;;;5050053;28;20055;-70
2021/07/31 04:39:46;;;;;;;2.22;0.52;;;;;;;;;;5065979;28;20045;-70
2021/07/31 04:42:13;;;;;;;2.30;0.43;;;;;;;;;;5058404;28;20028;-69
2021/07/31 04:44:40;;;;;;;2.20;0.40;;;;;;;;;;5051583;28;20482;-69
2021/07/31 04:47:08;;;;;;;2.72;0.40;;;;;;;;;;5050190;28;20138;-69
2021/07/31 04:49:38;;;;;;;3.45;0.50;;;;;;;;;;5058643;28;20115;-70
2021/07/31 04:52:09;;;;;;;1.80;0.55;;;;;;;;;;5058796;28;20032;-69
2021/07/31 04:54:40;;;;;;;1.73;0.47;;;;;;;;;;5049671;28;20028;-69
2021/07/31 04:57:07;;;;;;;3.10;0.40;;;;;;;;;;5046354;28;20017;-69
2021/07/31 04:59:34;;;;;;;3.00;0.43;;;;;;;;;;5048930;28;20033;-69
2021/07/31 05:02:01;;;;;;;1.65;0.43;;;;;;;;;;5071151;28;20032;-68
2021/07/31 05:04:28;;;;;;;4.78;0.75;;;;;;;;;;5056303;28;20033;-68
2021/07/31 05:06:56;;;;;;;1.40;0.50;;;;;;;;;;5060958;28;20012;-69
2021/07/31 05:09:23;;;;;;;4.05;0.50;;;;;;;;;;5057005;28;20057;-69
2021/07/31 05:11:50;;;;;;;3.33;0.65;;;;;;;;;;5048257;28;20061;-68
2021/07/31 05:14:17;;;;;;;2.38;0.50;;;;;;;;;;5053877;28;20593;-69
2021/07/31 05:16:44;;;;;;;3.17;1.08;;;;;;;;;;5052855;28;20040;-68
2021/07/31 05:19:11;;;;;;;1.90;0.47;;;;;;;;;;5058031;28;20505;-68
2021/07/31 05:21:38;;;;;;;2.92;0.60;;;;;;;;;;5053777;28;20545;-68
2021/07/31 05:24:06;;;;;;;2.80;0.40;;;;;;;;;;5053961;28;20089;-68
2021/07/31 05:26:33;;;;;;;3.97;0.50;;;;;;;;;;5054632;28;20029;-68
2021/07/31 05:29:00;;;;;;;2.17;0.40;;;;;;;;;;5047765;28;20155;-68
2021/07/31 05:31:27;;;;;;;3.53;0.45;;;;;;;;;;5050925;28;20112;-69
2021/07/31 05:33:54;;;;;;;4.90;0.55;;;;;;;;;;5047836;28;20021;-69
2021/07/31 05:36:22;;;;;;;3.58;0.70;;;;;;;;;;5052022;28;20052;-68
2021/07/31 05:38:49;;;;;;;2.08;0.30;;;;;;;;;;5050062;28;20029;-69
2021/07/31 05:41:17;;;;;;;1.83;0.32;;;;;;;;;;5047578;28;20102;-69
2021/07/31 05:43:44;;;;;;;3.42;0.98;;;;;;;;;;5051426;28;20096;-69
2021/07/31 05:46:12;;;;;;;1.40;0.60;;;;;;;;;;5049980;28;20030;-68
2021/07/31 05:48:39;;;;;;;7.25;0.85;;;;;;;;;;5049057;28;20033;-68
2021/07/31 05:51:06;;;;;;;18.45;1.30;;;;;;;;;;5049290;28;20021;-68
2021/07/31 05:53:33;;;;;;;6.90;1.10;;;;;;;;;;5046706;28;20540;-68
2021/07/31 05:56:00;;;;;;;5.32;0.85;;;;;;;;;;5048265;28;20036;-69
2021/07/31 05:58:31;;;;;;;5.35;1.30;;;;;;;;;;5050880;28;20421;-69
2021/07/31 06:00:58;;;;;;;5.93;1.17;;;;;;;;;;5053553;28;20118;-69
2021/07/31 06:03:25;;;;;;;4.13;1.23;;;;;;;;;;5050525;28;20036;-70
2021/07/31 06:05:52;;;;;;;7.10;1.08;;;;;;;;;;5063284;28;20045;-70
2021/07/31 06:08:19;;;;;;;6.80;1.10;;;;;;;;;;5050620;28;20444;-68
2021/07/31 06:10:46;;;;;;;6.57;1.10;;;;;;;;;;5050128;28;20029;-70
2021/07/31 06:13:13;;;;;;;5.55;0.90;;;;;;;;;;5047295;28;20028;-67
2021/07/31 06:15:44;;;;;;;10.07;1.05;;;;;;;;;;5043560;28;20025;-69
2021/07/31 06:18:11;;;;;;;6.20;1.33;;;;;;;;;;5045665;28;20036;-69
2021/07/31 06:20:38;;;;;;;13.80;1.73;;;;;;;;;;5048895;28;20044;-69
2021/07/31 06:23:05;;;;;;;5.18;1.33;;;;;;;;;;5049727;28;20025;-68
2021/07/31 06:25:32;;;;;;;7.97;1.75;;;;;;;;;;5050272;28;20116;-67
2021/07/31 06:27:59;;;;;;;7.32;1.77;;;;;;;;;;5048874;28;20036;-68
2021/07/31 06:30:26;;;;;;;5.82;1.10;;;;;;;;;;5050418;28;20033;-69
2021/07/31 06:32:53;;;;;;;5.95;1.25;;;;;;;;;;5048052;28;20496;-69
2021/07/31 06:35:20;;;;;;;8.25;1.70;;;;;;;;;;5047766;28;20548;-68
2021/07/31 06:37:48;;;;;;;6.93;1.17;;;;;;;;;;5048799;28;20037;-68
2021/07/31 06:40:15;;;;;;;10.07;2.10;;;;;;;;;;5061325;28;20423;-68
2021/07/31 06:42:42;;;;;;;5.25;1.70;;;;;;;;;;5048189;28;20021;-69
2021/07/31 06:45:09;;;;;;;8.45;1.40;;;;;;;;;;5051857;28;20505;-70
2021/07/31 06:47:37;;;;;;;4.93;1.60;;;;;;;;;;5048806;28;20428;-68
2021/07/31 06:50:09;;;;;;;9.05;2.30;;;;;;;;;;5050168;28;20385;-68
2021/07/31 06:52:37;;;;;;;7.93;2.45;;;;;;;;;;5049351;28;20036;-68
2021/07/31 06:55:04;;;;;;;9.95;2.67;;;;;;;;;;5046231;28;20025;-68
2021/07/31 06:57:32;;;;;;;9.40;2.40;;;;;;;;;;5047124;28;20112;-69
2021/07/31 06:59:59;;;;;;;11.50;3.25;;;;;;;;;;5048301;28;20021;-69
2021/07/31 07:02:26;;;;;;;7.72;2.83;;;;;;;;;;5048488;28;20071;-69
2021/07/31 07:04:53;;;;;;;10.27;2.95;;;;;;;;;;5045457;28;20017;-68
2021/07/31 07:07:20;;;;;;;7.55;2.60;;;;;;;;;;5044523;28;20020;-69
2021/07/31 07:09:48;;;;;;;6.43;1.92;;;;;;;;;;5043457;28;20032;-69
2021/07/31 07:12:15;;;;;;;9.43;2.25;;;;;;;;;;5050637;28;20072;-68
2021/07/31 07:14:42;;;;;;;8.77;2.53;;;;;;;;;;5046203;28;20025;-70
2021/07/31 07:17:09;;;;;;;7.53;2.88;;;;;;;;;;5048084;28;20104;-68
2021/07/31 07:19:36;;;;;;;10.30;3.30;;;;;;;;;;5046574;28;20088;-69
2021/07/31 07:22:03;;;;;;;13.43;2.80;;;;;;;;;;5052875;28;20096;-69
2021/07/31 07:24:30;;;;;;;7.97;2.55;;;;;;;;;;5048915;28;20052;-69
2021/07/31 07:26:58;;;;;;;9.77;3.38;;;;;;;;;;5051219;28;20666;-69
2021/07/31 07:29:25;;;;;;;10.63;3.53;;;;;;;;;;5050198;28;20059;-68
2021/07/31 07:31:52;;;;;;;9.07;3.25;;;;;;;;;;5048948;28;20074;-70
2021/07/31 07:34:19;;;;;;;8.27;2.88;;;;;;;;;;5046780;28;20490;-69
2021/07/31 07:36:46;;;;;;;11.95;3.78;;;;;;;;;;5050370;28;20076;-69
2021/07/31 07:39:13;;;;;;;9.52;3.45;;;;;;;;;;5048601;28;20033;-70
2021/07/31 07:41:40;;;;;;;8.98;2.92;;;;;;;;;;5047584;28;20071;-70
2021/07/31 07:44:07;;;;;;;15.20;3.17;;;;;;;;;;5046190;28;20029;-68
2021/07/31 07:46:34;;;;;;;5.78;2.58;;;;;;;;;;5047396;28;20032;-69
2021/07/31 07:49:02;;;;;;;7.82;2.47;;;;;;;;;;5043573;28;20032;-68
2021/07/31 07:51:29;;;;;;;8.07;2.28;;;;;;;;;;5043716;28;20078;-69
2021/07/31 07:53:56;;;;;;;8.98;2.58;;;;;;;;;;5046051;28;20013;-70
2021/07/31 07:56:23;;;;;;;8.40;2.70;;;;;;;;;;5043371;28;20073;-69
2021/07/31 07:58:53;;;;;;;12.20;2.78;;;;;;;;;;5046405;28;20124;-70
2021/07/31 08:01:20;;;;;;;8.52;2.40;;;;;;;;;;5043222;28;20064;-70
2021/07/31 08:03:47;;;;;;;9.80;2.70;;;;;;;;;;5046717;28;20081;-70
2021/07/31 08:06:18;;;;;;;8.30;2.40;;;;;;;;;;5048109;28;20021;-70
2021/07/31 08:08:45;;;;;;;6.15;2.08;;;;;;;;;;5043786;28;20059;-69
2021/07/31 08:11:12;;;;;;;7.63;1.98;;;;;;;;;;5048778;28;20025;-69
2021/07/31 08:13:39;;;;;;;9.05;2.10;;;;;;;;;;5036355;28;20084;-70
2021/07/31 08:16:06;;;;;;;8.68;2.20;;;;;;;;;;5047585;28;20028;-70
2021/07/31 08:18:33;;;;;;;6.55;2.35;;;;;;;;;;5048208;28;20036;-69
2021/07/31 08:21:01;;;;;;;5.95;2.58;;;;;;;;;;5049260;28;20066;-70
2021/07/31 08:23:28;;;;;;;8.85;3.55;;;;;;;;;;5035805;28;20025;-70
2021/07/31 08:25:55;;;;;;;11.65;3.97;;;;;;;;;;5060206;28;20017;-69
2021/07/31 08:28:22;;;;;;;13.93;4.47;;;;;;;;;;5049297;28;20032;-70
2021/07/31 08:30:49;;;;;;;23.58;5.65;;;;;;;;;;5048699;28;20029;-70
2021/07/31 08:33:16;;;;;;;9.73;4.82;;;;;;;;;;5047763;28;20028;-70
2021/07/31 08:35:43;;;;;;;18.63;5.68;;;;;;;;;;5050182;28;20150;-70
2021/07/31 08:38:11;;;;;;;13.38;5.28;;;;;;;;;;5046820;28;20041;-69
2021/07/31 08:40:38;;;;;;;10.20;5.03;;;;;;;;;;5040372;28;20103;-70
2021/07/31 08:43:05;;;;;;;10.57;5.03;;;;;;;;;;5045259;28;20030;-70
2021/07/31 08:45:33;;;;;;;14.43;6.30;;;;;;;;;;5047780;28;20028;-71
2021/07/31 08:48:01;;;;;;;15.98;6.85;;;;;;;;;;5047932;28;20025;-70
2021/07/31 08:50:29;;;;;;;13.00;6.55;;;;;;;;;;5047454;28;20028;-70
2021/07/31 08:52:57;;;;;;;10.52;7.20;;;;;;;;;;5049305;28;20071;-71
2021/07/31 08:55:24;;;;;;;11.63;5.15;;;;;;;;;;5047362;28;20025;-70
2021/07/31 08:57:51;;;;;;;12.77;4.65;;;;;;;;;;5039599;28;20483;-69
2021/07/31 09:00:19;;;;;;;8.05;4.05;;;;;;;;;;5047665;28;20083;-69
2021/07/31 09:02:49;;;;;;;9.93;4.13;;;;;;;;;;5042610;28;20060;-69
2021/07/31 09:05:37;;;;;;;13.68;4.55;;;;;;;;;;5050885;28;20105;-68
2021/07/31 09:08:05;;;;;;;6.32;3.22;;;;;;;;;;5048962;28;20033;-69
2021/07/31 09:10:34;;;;;;;5.85;2.97;;;;;;;;;;5047010;28;20107;-69
2021/07/31 09:13:02;;;;;;;7.65;2.80;;;;;;;;;;5045724;28;20032;-69
2021/07/31 09:15:33;;;;;;;9.65;3.05;;;;;;;;;;5044476;28;20036;-69
2021/07/31 09:18:20;;;;;;;5.65;2.45;;;;;;;;;;5041596;28;20056;-70
2021/07/31 09:20:57;;;;;;;10.60;2.45;;;;;;;;;;5046320;28;20477;-68
2021/07/31 09:23:24;;;;;;;7.43;2.42;;;;;;;;;;5048582;28;20112;-69
2021/07/31 09:26:01;;;;;;;6.25;2.65;;;;;;;;;;5044642;28;20021;-70
2021/07/31 09:28:29;;;;;;;8.77;2.65;;;;;;;;;;5047584;28;20045;-70
2021/07/31 09:30:56;;;;;;;5.65;2.92;;;;;;;;;;5047504;28;20366;-69
2021/07/31 09:33:24;;;;;;;6.88;2.95;;;;;;;;;;5047007;28;20029;-69
2021/07/31 09:36:01;;;;;;;6.65;2.95;;;;;;;;;;5049881;28;20383;-69
2021/07/31 09:38:57;;;;;;;7.90;3.17;;;;;;;;;;5047949;28;20024;-69
2021/07/31 09:41:24;;;;;;;6.85;2.85;;;;;;;;;;5030294;28;20111;-70
2021/07/31 09:44:01;;;;;;;9.18;2.88;;;;;;;;;;5044539;28;20547;-70
2021/07/31 09:46:47;;;;;;;4.03;2.38;;;;;;;;;;5045276;28;20103;-69
2021/07/31 09:49:15;;;;;;;7.75;3.72;;;;;;;;;;5041987;28;20036;-70
2021/07/31 09:51:46;;;;;;;5.82;3.03;;;;;;;;;;5041443;28;20040;-69
2021/07/31 09:54:14;;;;;;;6.00;3.40;;;;;;;;;;5042967;28;20498;-70
2021/07/31 09:56:42;;;;;;;8.55;3.13;;;;;;;;;;5044306;28;20036;-70
2021/07/31 09:59:10;;;;;;;10.88;3.95;;;;;;;;;;5041522;28;20025;-70
2021/07/31 10:01:39;;;;;;;6.38;3.45;;;;;;;;;;5054014;28;20067;-70
2021/07/31 10:04:06;;;;;;;6.85;3.60;;;;;;;;;;5044960;28;20684;-70
2021/07/31 10:06:33;;;;;;;7.45;3.60;;;;;;;;;;5039087;28;20438;-70
2021/07/31 10:09:03;;;;;;;7.18;2.90;;;;;;;;;;5044450;28;20027;-69
2021/07/31 10:11:32;;;;;;;9.35;2.90;;;;;;;;;;5036130;28;20409;-70
2021/07/31 10:14:00;;;;;;;8.48;2.75;;;;;;;;;;5046345;28;20017;-69
2021/07/31 10:16:27;;;;;;;6.15;3.05;;;;;;;;;;5037438;28;20075;-70
2021/07/31 10:18:59;;;;;;;8.30;2.92;;;;;;;;;;5034635;28;20486;-70
2021/07/31 10:21:27;;;;;;;4.25;2.50;;;;;;;;;;5045122;28;20029;-71
2021/07/31 10:24:01;;;;;;;5.65;2.20;;;;;;;;;;5052671;28;20025;-70
2021/07/31 10:26:28;;;;;;;;;;;;;;;;;;5053629;28;20497;-70
2021/07/31 10:28:55;;;;;;;7.35;2.75;;;;;;;;;;5052131;28;19919;-70
2021/07/31 10:31:29;;;;;;;4.53;1.60;;;;;;;;;;5040580;28;20076;-69
2021/07/31 10:33:56;;;;;;;4.13;1.42;;;;;;;;;;5050000;28;20553;-70
2021/07/31 10:36:33;;;;;;;8.18;2.13;;;;;;;;;;5048410;28;20130;-70
2021/07/31 10:39:02;;;;;;;4.38;2.25;;;;;;;;;;5048569;28;20048;-69
2021/07/31 10:41:47;;;;;;;3.33;1.38;;;;;;;;;;5065226;28;20021;-69
2021/07/31 10:44:14;;;;;;;4.57;1.48;;;;;;;;;;5049193;28;20091;-70
2021/07/31 10:46:42;;;;;;;4.97;1.63;;;;;;;;;;5052512;28;20047;-70
2021/07/31 10:49:27;;;;;;;3.95;0.90;;;;;;;;;;5039638;28;20521;-70
2021/07/31 10:51:54;;;;;;;4.03;1.33;;;;;;;;;;5041883;28;20025;-69
2021/07/31 10:54:41;;;;;;;2.17;1.45;;;;;;;;;;5035849;28;20367;-69
2021/07/31 10:57:08;;;;;;;6.65;1.40;;;;;;;;;;5043034;28;20028;-70
2021/07/31 10:59:35;;;;;;;3.95;1.38;;;;;;;;;;5049476;28;20043;-70
2021/07/31 11:02:21;;;;;;;5.72;1.55;;;;;;;;;;5040809;28;20034;-70
2021/07/31 11:05:00;;;;;;;6.60;1.27;;;;;;;;;;5058180;28;20097;-69
2021/07/31 11:07:29;;;;;;;6.32;1.75;;;;;;;;;;5034572;28;20041;-70
2021/07/31 11:10:19;;;;;;;3.70;1.35;;;;;;;;;;5043559;28;20382;-69
2021/07/31 11:12:46;;;;;;;3.50;1.20;;;;;;;;;;5045184;28;20044;-69
2021/07/31 11:15:13;;;;;;;4.93;1.10;;;;;;;;;;5050983;28;20085;-69
2021/07/31 11:17:41;;;;;;;5.25;1.80;;;;;;;;;;5053515;28;20057;-71
2021/07/31 11:20:46;;;;;;;5.75;1.23;;;;;;;;;;5044974;28;20104;-69
2021/07/31 11:23:14;;;;;;;;;;;;;;;;;;4946433;29;20027;-69
2021/07/31 11:25:42;;;;;;;7.50;1.45;;;;;;;;;;4936212;29;19939;-69
2021/07/31 11:28:10;;;;;;;2.38;0.90;;;;;;;;;;4997348;28;20179;-69
2021/07/31 11:30:38;;;;;;;4.90;0.98;;;;;;;;;;5050637;28;20033;-72
2021/07/31 11:33:19;;;;;;;4.63;1.02;;;;;;;;;;5038160;28;20486;-70
2021/07/31 11:35:47;;;;;;;6.28;1.15;;;;;;;;;;5043629;28;20045;-70
2021/07/31 11:38:29;;;;;;;4.32;0.98;;;;;;;;;;5061199;28;20075;-70
2021/07/31 11:41:00;;;;;;;6.38;1.00;;;;;;;;;;5056430;28;20025;-69
2021/07/31 11:43:28;;;;;;;3.35;0.80;;;;;;;;;;5054673;28;20112;-68
2021/07/31 11:45:55;;;;;;;3.90;1.20;;;;;;;;;;5042178;28;20053;-69
2021/07/31 11:48:23;;;;;;;6.22;1.20;;;;;;;;;;5044184;28;20024;-70
2021/07/31 11:51:02;;;;;;;3.30;1.10;;;;;;;;;;5046876;28;20052;-70
2021/07/31 11:53:30;;;;;;;2.50;0.90;;;;;;;;;;5044020;28;20033;-67
2021/07/31 11:56:13;;;;;;;3.63;1.08;;;;;;;;;;5051804;28;20025;-68
2021/07/31 11:58:44;;;;;;;4.95;0.90;;;;;;;;;;5048639;28;20048;-69
2021/07/31 12:01:12;;;;;;;3.35;1.10;;;;;;;;;;5051558;28;20086;-69
2021/07/31 12:03:43;;;;;;;4.53;1.00;;;;;;;;;;5050028;28;20021;-69
2021/07/31 12:06:29;;;;;;;3.10;0.75;;;;;;;;;;5049852;28;20029;-69
2021/07/31 12:09:00;;;;;;;3.45;1.02;;;;;;;;;;5049004;28;20025;-69
2021/07/31 12:11:41;;;;;;;3.08;0.93;;;;;;;;;;5044308;28;20037;-69
2021/07/31 12:14:26;;;;;;;4.50;1.20;;;;;;;;;;5047387;28;20489;-69
2021/07/31 12:16:53;;;;;;;4.03;0.85;;;;;;;;;;5046571;28;20135;-69
2021/07/31 12:19:20;;;;;;;4.22;1.00;;;;;;;;;;5044038;28;20103;-69
2021/07/31 12:21:47;;;;;;;5.68;1.20;;;;;;;;;;5048339;28;20032;-69
2021/07/31 12:24:18;;;;;;;4.57;1.10;;;;;;;;;;5046399;28;20028;-69
2021/07/31 12:26:55;;;;;;;7.97;1.40;;;;;;;;;;5046942;28;20064;-69
2021/07/31 12:29:35;;;;;;;4.97;1.02;;;;;;;;;;5048527;28;20033;-69
2021/07/31 12:32:21;;;;;;;7.50;1.75;;;;;;;;;;5049147;28;20083;-68
2021/07/31 12:34:48;;;;;;;4.85;1.42;;;;;;;;;;5048886;28;20171;-69
2021/07/31 12:37:15;;;;;;;5.38;1.63;;;;;;;;;;5050417;28;20124;-68
2021/07/31 12:39:42;;;;;;;3.95;1.50;;;;;;;;;;5044583;28;20158;-69
2021/07/31 12:42:09;;;;;;;5.97;1.77;;;;;;;;;;5048288;28;20536;-68
2021/07/31 12:44:39;;;;;;;2.78;1.10;;;;;;;;;;5047905;28;20025;-69
2021/07/31 12:47:07;;;;;;;6.25;2.13;;;;;;;;;;5049627;28;20075;-69
2021/07/31 12:49:34;;;;;;;2.72;1.38;;;;;;;;;;5047985;28;20021;-70
2021/07/31 12:52:02;;;;;;;5.10;0.88;;;;;;;;;;5047598;28;20055;-69
2021/07/31 12:54:29;;;;;;;5.00;1.08;;;;;;;;;;5046058;28;20032;-70
2021/07/31 12:56:56;;;;;;;4.38;1.17;;;;;;;;;;5049794;28;20073;-68
2021/07/31 12:59:23;;;;;;;2.95;1.10;;;;;;;;;;5048549;28;20037;-69
2021/07/31 13:01:50;;;;;;;2.90;1.25;;;;;;;;;;5048960;28;20025;-68
2021/07/31 13:04:18;;;;;;;4.35;1.27;;;;;;;;;;5047954;28;20025;-68
2021/07/31 13:06:45;;;;;;;3.30;0.95;;;;;;;;;;5049882;28;20105;-68
2021/07/31 13:09:12;;;;;;;5.50;1.10;;;;;;;;;;5047694;28;20025;-68
2021/07/31 13:11:39;;;;;;;2.80;0.80;;;;;;;;;;5047951;28;20028;-69
2021/07/31 13:14:09;;;;;;;4.00;0.95;;;;;;;;;;5044323;28;20096;-68
2021/07/31 13:16:37;;;;;;;4.57;0.90;;;;;;;;;;5049067;28;20033;-69
2021/07/31 13:19:04;;;;;;;6.90;1.38;;;;;;;;;;5048674;28;20083;-68
2021/07/31 13:21:31;;;;;;;6.20;1.20;;;;;;;;;;5048203;28;20013;-68
2021/07/31 13:23:58;;;;;;;4.00;1.10;;;;;;;;;;5063385;28;20055;-68
2021/07/31 13:26:25;;;;;;;3.13;0.98;;;;;;;;;;5049807;28;20040;-69
2021/07/31 13:28:52;;;;;;;4.68;1.80;;;;;;;;;;5044372;28;20107;-68
2021/07/31 13:31:22;;;;;;;5.13;1.20;;;;;;;;;;5043940;28;20028;-69
2021/07/31 13:33:50;;;;;;;4.45;1.48;;;;;;;;;;5042768;28;20363;-69
2021/07/31 13:36:17;;;;;;;4.82;0.90;;;;;;;;;;5050736;28;20468;-68
2021/07/31 13:38:51;;;;;;;6.47;1.00;;;;;;;;;;5046125;28;20036;-69
2021/07/31 13:41:18;;;;;;;5.35;1.20;;;;;;;;;;5049392;28;20083;-69
2021/07/31 13:43:45;;;;;;;4.03;1.00;;;;;;;;;;5048646;28;20065;-69
2021/07/31 13:46:13;;;;;;;3.33;1.00;;;;;;;;;;5054167;28;20044;-69
2021/07/31 13:48:40;;;;;;;3.28;1.00;;;;;;;;;;5052256;28;20439;-69
2021/07/31 13:51:07;;;;;;;3.20;0.80;;;;;;;;;;5053863;28;20489;-69
2021/07/31 13:53:34;;;;;;;3.70;0.95;;;;;;;;;;5050470;28;20791;-69
2021/07/31 13:56:02;;;;;;;3.88;1.20;;;;;;;;;;5052473;28;20509;-69
2021/07/31 13:58:30;;;;;;;4.95;1.17;;;;;;;;;;5041305;28;20024;-68
2021/07/31 14:00:58;;;;;;;4.30;1.05;;;;;;;;;;5052972;28;20028;-68
2021/07/31 14:03:28;;;;;;;6.75;1.20;;;;;;;;;;5052248;28;20021;-69
2021/07/31 14:05:55;;;;;;;4.03;0.70;;;;;;;;;;5051129;28;20104;-70
2021/07/31 14:08:22;;;;;;;4.47;0.85;;;;;;;;;;5051941;28;20025;-68
2021/07/31 14:10:49;;;;;;;1.20;0.50;;;;;;;;;;5051715;28;20037;-69
2021/07/31 14:13:16;;;;;;;5.55;1.00;;;;;;;;;;5051640;28;20378;-69
2021/07/31 14:15:44;;;;;;;5.75;0.90;;;;;;;;;;5043964;28;20025;-70
2021/07/31 14:18:12;;;;;;;3.10;0.70;;;;;;;;;;5052480;28;20033;-69
2021/07/31 14:20:42;;;;;;;3.65;0.93;;;;;;;;;;5053374;28;20108;-69
2021/07/31 14:23:14;;;;;;;5.43;0.70;;;;;;;;;;5050843;28;20029;-69
2021/07/31 14:25:42;;;;;;;4.38;0.65;;;;;;;;;;5052534;28;20028;-69
2021/07/31 14:28:10;;;;;;;3.13;0.70;;;;;;;;;;5049547;28;20025;-69
2021/07/31 14:30:39;;;;;;;3.63;1.23;;;;;;;;;;5046301;28;20094;-70
2021/07/31 14:33:07;;;;;;;4.95;0.57;;;;;;;;;;5048580;28;20087;-69
2021/07/31 14:35:34;;;;;;;2.58;0.88;;;;;;;;;;5052077;28;20386;-69
2021/07/31 14:38:01;;;;;;;3.40;0.80;;;;;;;;;;5050738;28;20037;-68
2021/07/31 14:40:29;;;;;;;6.70;0.80;;;;;;;;;;5053768;28;20392;-69
2021/07/31 14:42:57;;;;;;;7.60;1.02;;;;;;;;;;5046280;28;20445;-68
2021/07/31 14:45:24;;;;;;;2.60;0.93;;;;;;;;;;5050400;28;20543;-69
2021/07/31 14:47:51;;;;;;;2.58;0.60;;;;;;;;;;5050582;28;20049;-69
2021/07/31 14:50:21;;;;;;;3.80;0.57;;;;;;;;;;5052125;28;20385;-70
2021/07/31 14:52:48;;;;;;;4.93;0.75;;;;;;;;;;5045578;28;20092;-70